createdAt,value
2022-08-26T00:00:36.111Z,21.41
2022-08-26T00:05:39.658Z,21.45
2022-08-26T00:10:43.727Z,21.42
2022-08-26T00:15:46.032Z,21.39
2022-08-26T00:20:48.104Z,21.27
2022-08-26T00:25:51.659Z,21.11
2022-08-26T00:30:53.595Z,20.99
2022-08-26T00:35:55.702Z,21.11
2022-08-26T00:40:59.442Z,21.00
2022-08-26T00:46:07.987Z,20.99
2022-08-26T00:51:15.168Z,21.02
2022-08-26T00:56:22.031Z,20.96
2022-08-26T01:01:24.169Z,21.19
2022-08-26T01:06:26.925Z,21.30
2022-08-26T01:11:31.454Z,21.54
2022-08-26T01:16:33.933Z,21.40
2022-08-26T01:21:43.813Z,21.31
2022-08-26T01:26:48.696Z,21.40
2022-08-26T01:31:54.342Z,21.40
2022-08-26T01:37:01.833Z,21.55
2022-08-26T01:42:10.344Z,21.49
2022-08-26T01:47:14.964Z,21.26
2022-08-26T01:52:22.231Z,20.97
2022-08-26T01:57:28.057Z,20.76
2022-08-26T02:02:30.402Z,20.72
2022-08-26T02:07:33.802Z,20.58
2022-08-26T02:12:38.401Z,20.55
2022-08-26T02:17:44.099Z,20.43
2022-08-26T02:22:46.001Z,20.33
2022-08-26T02:27:49.545Z,20.22
2022-08-26T02:32:52.038Z,20.11
2022-08-26T02:37:54.297Z,20.09
2022-08-26T02:42:58.282Z,20.06
2022-08-26T02:48:09.877Z,19.97
2022-08-26T02:53:13.386Z,19.93
2022-08-26T02:58:17.435Z,19.87
2022-08-26T03:03:19.907Z,19.79
2022-08-26T03:08:24.921Z,19.77
2022-08-26T03:13:28.904Z,19.71
2022-08-26T03:18:30.976Z,19.65
2022-08-26T03:23:32.923Z,19.63
2022-08-26T03:28:36.394Z,19.55
2022-08-26T03:33:38.499Z,19.50
2022-08-26T03:38:40.195Z,19.38
2022-08-26T03:43:44.611Z,19.38
2022-08-26T03:48:47.388Z,19.34
2022-08-26T03:53:49.404Z,19.32
2022-08-26T03:58:52.974Z,19.20
2022-08-26T04:03:55.389Z,19.17
2022-08-26T04:08:59.085Z,19.15
2022-08-26T04:14:06.078Z,19.08
2022-08-26T04:19:09.747Z,19.12
2022-08-26T04:24:14.108Z,19.17
2022-08-26T04:29:21.328Z,19.22
2022-08-26T04:34:24.288Z,19.39
2022-08-26T04:39:29.277Z,19.48
2022-08-26T04:44:35.675Z,19.58
2022-08-26T04:49:37.734Z,19.68
2022-08-26T04:54:39.474Z,19.86
2022-08-26T04:59:45.297Z,20.02
2022-08-26T05:04:48.206Z,20.22
2022-08-26T05:09:53.796Z,20.47
2022-08-26T05:14:58.288Z,20.78
2022-08-26T05:20:00.325Z,21.33
2022-08-26T05:25:02.562Z,22.08
2022-08-26T05:30:07.456Z,22.95
2022-08-26T05:35:09.418Z,23.71
2022-08-26T05:40:12.589Z,23.72
2022-08-26T05:45:16.785Z,24.33
2022-08-26T05:50:20.498Z,25.18
2022-08-26T05:55:22.642Z,26.13
2022-08-26T06:00:26.629Z,26.11
2022-08-26T06:05:29.232Z,26.09
2022-08-26T06:10:32.841Z,26.97
2022-08-26T06:15:39.684Z,27.62
2022-08-26T06:20:54.582Z,26.41
2022-08-26T06:26:00.627Z,25.43
2022-08-26T06:31:04.275Z,25.67
2022-08-26T06:36:07.071Z,25.62
2022-08-26T06:41:09.177Z,25.15
2022-08-26T06:46:14.953Z,25.18
2022-08-26T06:51:18.931Z,25.10
2022-08-26T06:56:22.902Z,25.48
2022-08-26T07:01:30.703Z,25.08
2022-08-26T07:06:37.215Z,25.20
2022-08-26T07:11:41.084Z,25.49
2022-08-26T07:16:44.902Z,25.64
2022-08-26T07:21:46.622Z,25.59
2022-08-26T07:26:51.484Z,25.46
2022-08-26T07:31:56.369Z,25.48
2022-08-26T07:36:59.194Z,25.94
2022-08-26T07:42:03.849Z,26.07
2022-08-26T07:47:25.627Z,26.61
2022-08-26T07:52:30.077Z,26.48
2022-08-26T07:57:32.638Z,26.60
2022-08-26T08:02:35.703Z,26.98
2022-08-26T08:07:44.310Z,27.38
2022-08-26T08:12:47.367Z,27.99
2022-08-26T08:17:51.538Z,28.10
2022-08-26T08:22:54.335Z,28.06
2022-08-26T08:27:56.962Z,28.22
2022-08-26T08:33:00.026Z,28.65
2022-08-26T08:38:02.067Z,28.07
2022-08-26T08:43:10.135Z,28.13
2022-08-26T08:48:19.789Z,28.72
2022-08-26T08:53:31.948Z,28.94
2022-08-26T08:58:50.626Z,29.05
2022-08-26T09:04:11.351Z,29.14
2022-08-26T09:09:22.552Z,29.79
2022-08-26T09:14:27.068Z,30.71
2022-08-26T09:19:38.356Z,31.90
2022-08-26T09:24:42.125Z,31.97
2022-08-26T09:29:51.337Z,32.24
2022-08-26T09:34:59.749Z,31.54
2022-08-26T09:40:20.759Z,31.82
2022-08-26T09:45:28.788Z,33.24
2022-08-26T09:50:36.234Z,32.86
2022-08-26T09:55:39.753Z,33.56
2022-08-26T10:00:52.927Z,32.79
2022-08-26T10:05:59.333Z,30.28
2022-08-26T10:11:05.922Z,30.60
2022-08-26T10:16:16.606Z,33.07
2022-08-26T10:21:25.645Z,35.59
2022-08-26T10:26:38.598Z,36.12
2022-08-26T10:31:46.756Z,37.01
2022-08-26T10:37:13.857Z,32.44
2022-08-26T10:42:25.184Z,30.63
2022-08-26T10:47:34.757Z,31.95
2022-08-26T10:52:51.266Z,33.02
2022-08-26T10:58:00.234Z,30.87
2022-08-26T11:03:22.049Z,30.51
2022-08-26T11:08:29.652Z,30.48
2022-08-26T11:14:00.854Z,30.72
2022-08-26T11:19:03.643Z,30.28
2022-08-26T11:24:07.373Z,28.77
2022-08-26T11:29:13.328Z,27.71
2022-08-26T11:34:15.636Z,26.74
2022-08-26T11:39:22.905Z,27.14
2022-08-26T11:44:27.221Z,27.26
2022-08-26T11:49:31.397Z,26.42
2022-08-26T11:54:37.827Z,25.76
2022-08-26T11:59:41.426Z,25.12
2022-08-26T12:04:47.675Z,24.56
2022-08-26T12:09:56.627Z,24.34
2022-08-26T12:15:13.725Z,24.39
2022-08-26T12:20:28.065Z,24.39
2022-08-26T12:25:36.006Z,24.20
2022-08-26T12:30:38.607Z,24.32
2022-08-26T12:35:40.880Z,23.83
2022-08-26T12:40:47.433Z,23.81
2022-08-26T12:45:56.890Z,23.92
2022-08-26T12:51:00.966Z,23.40
2022-08-26T12:56:20.061Z,23.25
2022-08-26T13:01:22.965Z,23.13
2022-08-26T13:06:27.300Z,22.95
2022-08-26T13:11:33.002Z,22.54
2022-08-26T13:16:35.444Z,22.36
2022-08-26T13:21:42.191Z,22.32
2022-08-26T13:26:47.493Z,22.16
2022-08-26T13:31:50.449Z,22.11
2022-08-26T13:36:54.805Z,22.14
2022-08-26T13:41:58.606Z,21.98
2022-08-26T13:47:00.359Z,21.56
2022-08-26T13:52:02.340Z,20.82
2022-08-26T13:57:06.266Z,20.47
2022-08-26T14:02:08.684Z,20.37
2022-08-26T14:07:12.299Z,20.35
2022-08-26T14:12:15.866Z,20.35
2022-08-26T14:17:21.302Z,20.34
2022-08-26T14:22:23.513Z,20.34
2022-08-26T14:27:26.993Z,20.34
2022-08-26T14:32:29.349Z,20.27
2022-08-26T14:37:31.133Z,20.25
2022-08-26T14:42:34.873Z,20.15
2022-08-26T14:47:36.592Z,20.09
2022-08-26T14:52:38.696Z,20.04
2022-08-26T14:57:42.306Z,20.16
2022-08-26T15:02:45.126Z,20.16
2022-08-26T15:07:47.446Z,20.29
2022-08-26T15:12:52.158Z,20.56
2022-08-26T15:17:53.902Z,20.57
2022-08-26T15:22:55.715Z,20.73
2022-08-26T15:27:58.832Z,20.72
2022-08-26T15:33:00.565Z,20.79
2022-08-26T15:38:02.830Z,20.89
2022-08-26T15:43:25.617Z,20.83
2022-08-26T15:48:28.342Z,21.13
2022-08-26T15:53:32.667Z,21.25
2022-08-26T15:58:36.237Z,21.34
2022-08-26T16:03:38.263Z,21.32
2022-08-26T16:08:40.153Z,21.16
2022-08-26T16:13:43.625Z,21.17
2022-08-26T16:18:45.947Z,21.08
2022-08-26T16:23:48.316Z,21.25
2022-08-26T16:28:51.772Z,21.46
2022-08-26T16:33:53.417Z,21.51
2022-08-26T16:38:56.126Z,21.39
2022-08-26T16:43:59.838Z,21.44
2022-08-26T16:49:02.362Z,21.64
2022-08-26T16:54:04.745Z,21.77
2022-08-26T16:59:10.741Z,21.45
2022-08-26T17:04:12.505Z,21.52
2022-08-26T17:09:14.310Z,21.38
2022-08-26T17:14:17.811Z,21.51
2022-08-26T17:19:20.679Z,21.52
2022-08-26T17:24:22.441Z,21.45
2022-08-26T17:29:25.559Z,21.28
2022-08-26T17:34:27.464Z,21.38
2022-08-26T17:39:30.115Z,21.35
2022-08-26T17:44:33.343Z,21.29
2022-08-26T17:49:35.077Z,21.26
2022-08-26T17:54:37.256Z,21.27
2022-08-26T17:59:41.069Z,21.21
2022-08-26T18:04:42.866Z,21.03
2022-08-26T18:09:45.180Z,20.96
2022-08-26T18:14:48.641Z,20.84
2022-08-26T18:19:50.918Z,20.80
2022-08-26T18:24:58.220Z,20.78
2022-08-26T18:30:02.798Z,20.68
2022-08-26T18:35:05.153Z,20.59
2022-08-26T18:40:10.148Z,20.50
2022-08-26T18:45:16.395Z,20.39
2022-08-26T18:50:18.841Z,20.25
2022-08-26T18:55:21.060Z,20.35
2022-08-26T19:00:24.869Z,20.33
2022-08-26T19:05:26.977Z,20.22
2022-08-26T19:10:28.735Z,20.20
2022-08-26T19:15:32.836Z,20.20
2022-08-26T19:20:37.932Z,20.23
2022-08-26T19:25:41.961Z,20.20
2022-08-26T19:30:49.087Z,20.05
2022-08-26T19:35:53.402Z,19.98
2022-08-26T19:40:57.072Z,19.96
2022-08-26T19:46:00.524Z,20.00
2022-08-26T19:51:02.749Z,20.00
2022-08-26T19:56:04.718Z,19.97
2022-08-26T20:01:08.410Z,19.95
2022-08-26T20:06:12.306Z,19.93
2022-08-26T20:11:16.806Z,20.02
2022-08-26T20:16:20.218Z,19.94
2022-08-26T20:21:22.292Z,19.95
2022-08-26T20:26:24.680Z,19.84
2022-08-26T20:31:29.160Z,19.85
2022-08-26T20:36:32.466Z,19.76
2022-08-26T20:41:34.250Z,19.78
2022-08-26T20:46:37.493Z,19.78
2022-08-26T20:51:39.861Z,19.74
2022-08-26T20:56:41.756Z,19.82
2022-08-26T21:01:47.318Z,19.70
2022-08-26T21:06:52.294Z,19.70
2022-08-26T21:11:54.789Z,19.56
2022-08-26T21:16:58.395Z,19.70
2022-08-26T21:22:00.739Z,19.65
2022-08-26T21:27:02.807Z,19.55
2022-08-26T21:32:06.833Z,19.42
2022-08-26T21:37:08.950Z,19.57
2022-08-26T21:42:18.822Z,19.54
2022-08-26T21:47:22.611Z,19.59
2022-08-26T21:52:24.664Z,19.56
2022-08-26T21:57:28.527Z,19.64
2022-08-26T22:02:32.437Z,19.64
2022-08-26T22:07:34.609Z,19.62
2022-08-26T22:12:36.820Z,19.72
2022-08-26T22:17:39.972Z,19.68
2022-08-26T22:22:42.052Z,19.60
2022-08-26T22:27:44.774Z,19.65
2022-08-26T22:32:48.203Z,19.64
2022-08-26T22:37:49.955Z,19.61
2022-08-26T22:42:55.688Z,19.57
2022-08-26T22:48:04.520Z,19.51
2022-08-26T22:53:06.498Z,19.47
2022-08-26T22:58:08.812Z,19.49
2022-08-26T23:03:13.764Z,19.40
2022-08-26T23:08:16.883Z,19.34
2022-08-26T23:13:19.414Z,19.39
2022-08-26T23:18:23.028Z,19.33
2022-08-26T23:23:25.301Z,19.32
2022-08-26T23:28:28.348Z,19.34
2022-08-26T23:33:31.923Z,19.36
2022-08-26T23:38:34.016Z,19.29
2022-08-26T23:43:37.185Z,19.36
2022-08-26T23:48:40.865Z,19.28
2022-08-26T23:53:42.930Z,19.30
2022-08-26T23:58:47.100Z,19.31
